createdAt,value
2022-12-24T00:00:09.465Z,10.72
2022-12-24T00:00:59.436Z,10.72
2022-12-24T00:01:49.419Z,10.72
2022-12-24T00:02:39.522Z,10.69
2022-12-24T00:03:29.534Z,10.68
2022-12-24T00:04:19.394Z,10.68
2022-12-24T00:05:09.372Z,10.68
2022-12-24T00:05:59.371Z,10.65
2022-12-24T00:06:49.359Z,10.68
2022-12-24T00:07:39.362Z,10.68
2022-12-24T00:08:29.339Z,10.69
2022-12-24T00:09:19.360Z,10.69
2022-12-24T00:10:09.350Z,10.68
2022-12-24T00:10:59.310Z,10.66
2022-12-24T00:11:49.300Z,10.65
2022-12-24T00:12:39.490Z,10.66
2022-12-24T00:13:29.292Z,10.65
2022-12-24T00:14:19.271Z,10.66
2022-12-24T00:15:09.262Z,10.65
2022-12-24T00:15:59.263Z,10.65
2022-12-24T00:16:49.287Z,10.63
2022-12-24T00:17:39.253Z,10.63
2022-12-24T00:18:29.233Z,10.63
2022-12-24T00:19:19.224Z,10.62
2022-12-24T00:20:09.264Z,10.60
2022-12-24T00:20:59.203Z,10.63
2022-12-24T00:21:49.188Z,10.62
2022-12-24T00:22:39.198Z,10.62
2022-12-24T00:23:29.169Z,10.60
2022-12-24T00:24:19.168Z,10.62
2022-12-24T00:25:09.161Z,10.60
2022-12-24T00:25:59.149Z,10.62
2022-12-24T00:26:49.135Z,10.65
2022-12-24T00:27:39.161Z,10.68
2022-12-24T00:28:29.119Z,10.66
2022-12-24T00:29:19.129Z,10.69
2022-12-24T00:30:09.101Z,10.73
2022-12-24T00:30:59.197Z,10.73
2022-12-24T00:31:49.077Z,10.75
2022-12-24T00:32:39.096Z,10.75
2022-12-24T00:33:29.064Z,10.73
2022-12-24T00:34:19.087Z,10.70
2022-12-24T00:35:09.049Z,10.69
2022-12-24T00:35:59.047Z,10.69
2022-12-24T00:36:49.028Z,10.65
2022-12-24T00:37:39.029Z,10.65
2022-12-24T00:38:29.008Z,10.65
2022-12-24T00:39:19.012Z,10.63
2022-12-24T00:40:08.993Z,10.58
2022-12-24T00:40:58.997Z,10.49
2022-12-24T00:41:48.973Z,10.42
2022-12-24T00:42:38.978Z,10.35
2022-12-24T00:43:28.950Z,10.32
2022-12-24T00:44:18.970Z,10.29
2022-12-24T00:45:08.941Z,10.26
2022-12-24T00:45:58.984Z,10.28
2022-12-24T00:46:48.954Z,10.28
2022-12-24T00:47:38.927Z,10.26
2022-12-24T00:48:28.898Z,10.28
2022-12-24T00:49:18.888Z,10.34
2022-12-24T00:50:08.899Z,10.44
2022-12-24T00:50:58.892Z,10.49
2022-12-24T00:51:48.857Z,10.52
2022-12-24T00:52:38.872Z,10.54
2022-12-24T00:53:28.850Z,10.55
2022-12-24T00:54:18.839Z,10.57
2022-12-24T00:55:08.824Z,10.60
2022-12-24T00:55:58.817Z,10.63
2022-12-24T00:56:48.824Z,10.63
2022-12-24T00:57:38.816Z,10.63
2022-12-24T00:58:28.785Z,10.65
2022-12-24T00:59:18.774Z,10.68
2022-12-24T01:00:08.768Z,10.68
2022-12-24T01:00:58.807Z,10.72
2022-12-24T01:01:48.902Z,10.72
2022-12-24T01:02:39.063Z,10.73
2022-12-24T01:03:28.798Z,10.69
2022-12-24T01:04:18.731Z,10.70
2022-12-24T01:05:08.710Z,10.68
2022-12-24T01:05:58.712Z,10.68
2022-12-24T01:06:48.700Z,10.68
2022-12-24T01:07:38.706Z,10.68
2022-12-24T01:08:28.674Z,10.63
2022-12-24T01:09:18.691Z,10.63
2022-12-24T01:10:08.653Z,10.62
2022-12-24T01:10:58.656Z,10.66
2022-12-24T01:11:48.653Z,10.66
2022-12-24T01:12:38.692Z,10.65
2022-12-24T01:13:28.614Z,10.60
2022-12-24T01:14:18.614Z,10.58
2022-12-24T01:15:08.615Z,10.60
2022-12-24T01:15:58.647Z,10.57
2022-12-24T01:16:48.584Z,10.54
2022-12-24T01:17:38.589Z,10.57
2022-12-24T01:18:28.589Z,10.63
2022-12-24T01:19:18.542Z,10.68
2022-12-24T01:20:15.563Z,10.65
2022-12-24T01:20:58.517Z,10.66
2022-12-24T01:21:48.524Z,10.65
2022-12-24T01:22:38.528Z,10.66
2022-12-24T01:23:28.509Z,10.62
2022-12-24T01:24:18.507Z,10.60
2022-12-24T01:25:08.490Z,10.62
2022-12-24T01:25:58.486Z,10.63
2022-12-24T01:26:48.467Z,10.63
2022-12-24T01:27:38.541Z,10.66
2022-12-24T01:28:28.450Z,10.65
2022-12-24T01:29:18.447Z,10.60
2022-12-24T01:30:08.429Z,10.55
2022-12-24T01:30:58.502Z,10.55
2022-12-24T01:31:48.435Z,10.54
2022-12-24T01:32:38.431Z,10.47
2022-12-24T01:33:28.395Z,10.46
2022-12-24T01:34:18.391Z,10.46
2022-12-24T01:35:08.377Z,10.43
2022-12-24T01:35:58.367Z,10.44
2022-12-24T01:36:49.995Z,10.46
2022-12-24T01:37:38.367Z,10.47
2022-12-24T01:38:28.336Z,10.46
2022-12-24T01:39:18.343Z,10.46
2022-12-24T01:40:08.319Z,10.43
2022-12-24T01:40:58.317Z,10.44
2022-12-24T01:41:48.317Z,10.43
2022-12-24T01:42:38.306Z,10.47
2022-12-24T01:43:28.307Z,10.52
2022-12-24T01:44:18.301Z,10.54
2022-12-24T01:45:08.284Z,10.58
2022-12-24T01:45:58.313Z,10.63
2022-12-24T01:46:48.350Z,10.70
2022-12-24T01:47:38.254Z,10.80
2022-12-24T01:48:28.250Z,10.83
2022-12-24T01:49:18.226Z,10.80
2022-12-24T01:50:08.206Z,10.81
2022-12-24T01:50:58.207Z,10.80
2022-12-24T01:51:48.215Z,10.80
2022-12-24T01:52:38.196Z,10.78
2022-12-24T01:53:28.184Z,10.76
2022-12-24T01:54:18.164Z,10.80
2022-12-24T01:55:08.157Z,10.76
2022-12-24T01:55:58.144Z,10.75
2022-12-24T01:56:48.134Z,10.68
2022-12-24T01:57:38.153Z,10.60
2022-12-24T01:58:28.115Z,10.60
2022-12-24T01:59:18.125Z,10.62
2022-12-24T02:00:08.156Z,10.62
2022-12-24T02:00:58.103Z,10.57
2022-12-24T02:01:48.182Z,10.58
2022-12-24T02:02:38.326Z,10.58
2022-12-24T02:03:28.190Z,10.60
2022-12-24T02:04:18.058Z,10.55
2022-12-24T02:05:08.066Z,10.52
2022-12-24T02:05:58.056Z,10.49
2022-12-24T02:06:48.026Z,10.51
2022-12-24T02:07:38.038Z,10.51
2022-12-24T02:08:28.008Z,10.52
2022-12-24T02:09:18.019Z,10.52
2022-12-24T02:10:07.993Z,10.49
2022-12-24T02:10:57.995Z,10.44
2022-12-24T02:11:47.996Z,10.43
2022-12-24T02:12:37.997Z,10.43
2022-12-24T02:13:27.958Z,10.43
2022-12-24T02:14:17.942Z,10.46
2022-12-24T02:15:07.937Z,10.44
2022-12-24T02:15:57.953Z,10.44
2022-12-24T02:16:47.933Z,10.44
2022-12-24T02:17:37.911Z,10.42
2022-12-24T02:18:27.928Z,10.39
2022-12-24T02:19:17.935Z,10.38
2022-12-24T02:20:07.895Z,10.35
2022-12-24T02:20:57.870Z,10.38
2022-12-24T02:21:47.873Z,10.38
2022-12-24T02:22:37.867Z,10.34
2022-12-24T02:23:27.863Z,10.31
2022-12-24T02:24:17.831Z,10.32
2022-12-24T02:25:07.830Z,10.26
2022-12-24T02:25:57.813Z,10.26
2022-12-24T02:26:47.809Z,10.25
2022-12-24T02:27:37.812Z,10.25
2022-12-24T02:28:27.801Z,10.28
2022-12-24T02:29:17.773Z,10.32
2022-12-24T02:30:07.776Z,10.35
2022-12-24T02:30:57.839Z,10.42
2022-12-24T02:31:47.802Z,10.42
2022-12-24T02:32:37.759Z,10.39
2022-12-24T02:33:27.764Z,10.46
2022-12-24T02:34:17.720Z,10.49
2022-12-24T02:35:07.724Z,10.49
2022-12-24T02:35:57.706Z,10.47
2022-12-24T02:36:47.698Z,10.49
2022-12-24T02:37:37.754Z,10.47
2022-12-24T02:38:27.679Z,10.46
2022-12-24T02:39:17.680Z,10.47
2022-12-24T02:40:13.823Z,10.49
2022-12-24T02:40:58.648Z,10.44
2022-12-24T02:41:47.659Z,10.42
2022-12-24T02:42:37.651Z,10.43
2022-12-24T02:43:27.620Z,10.46
2022-12-24T02:44:17.607Z,10.46
2022-12-24T02:45:07.611Z,10.44
2022-12-24T02:45:59.486Z,10.46
2022-12-24T02:46:47.617Z,10.44
2022-12-24T02:47:37.587Z,10.43
2022-12-24T02:48:27.574Z,10.39
2022-12-24T02:49:17.558Z,10.32
2022-12-24T02:50:07.574Z,10.31
2022-12-24T02:50:57.546Z,10.31
2022-12-24T02:51:47.538Z,10.34
2022-12-24T02:52:37.548Z,10.32
2022-12-24T02:53:27.509Z,10.32
2022-12-24T02:54:17.501Z,10.32
2022-12-24T02:55:07.505Z,10.29
2022-12-24T02:55:57.479Z,10.24
2022-12-24T02:56:47.482Z,10.25
2022-12-24T02:57:37.478Z,10.22
2022-12-24T02:58:27.456Z,10.24
2022-12-24T02:59:17.448Z,10.17
2022-12-24T03:00:07.438Z,10.18
2022-12-24T03:00:57.491Z,10.17
2022-12-24T03:01:47.537Z,10.17
2022-12-24T03:02:37.509Z,10.13
2022-12-24T03:03:27.412Z,10.10
2022-12-24T03:04:17.385Z,10.10
2022-12-24T03:05:07.391Z,10.09
2022-12-24T03:05:57.381Z,10.10
2022-12-24T03:06:47.365Z,10.10
2022-12-24T03:07:37.365Z,10.10
2022-12-24T03:08:27.359Z,10.13
2022-12-24T03:09:17.337Z,10.14
2022-12-24T03:10:07.325Z,10.16
2022-12-24T03:10:57.324Z,10.13
2022-12-24T03:11:47.303Z,10.11
2022-12-24T03:12:37.317Z,10.11
2022-12-24T03:13:27.296Z,10.10
2022-12-24T03:14:17.274Z,10.10
2022-12-24T03:15:07.272Z,10.09
2022-12-24T03:15:57.328Z,10.10
2022-12-24T03:16:47.360Z,10.10
2022-12-24T03:17:37.261Z,10.16
2022-12-24T03:18:27.260Z,10.17
2022-12-24T03:19:17.222Z,10.17
2022-12-24T03:20:07.216Z,10.20
2022-12-24T03:20:57.218Z,10.18
2022-12-24T03:21:47.193Z,10.17
2022-12-24T03:22:37.196Z,10.16
2022-12-24T03:23:27.188Z,10.10
2022-12-24T03:24:17.192Z,10.07
2022-12-24T03:25:07.152Z,10.04
2022-12-24T03:25:57.143Z,10.04
2022-12-24T03:26:47.148Z,10.04
2022-12-24T03:27:37.154Z,10.04
2022-12-24T03:28:27.145Z,10.06
2022-12-24T03:29:17.117Z,10.06
2022-12-24T03:30:07.110Z,10.02
2022-12-24T03:30:57.093Z,10.01
2022-12-24T03:31:47.176Z,9.98
2022-12-24T03:32:37.083Z,9.95
2022-12-24T03:33:27.062Z,9.91
2022-12-24T03:34:17.052Z,9.86
2022-12-24T03:35:07.052Z,9.85
2022-12-24T03:35:57.031Z,9.85
2022-12-24T03:36:47.031Z,9.86
2022-12-24T03:37:37.035Z,9.88
2022-12-24T03:38:27.016Z,9.85
2022-12-24T03:39:16.992Z,9.83
2022-12-24T03:40:07.004Z,9.78
2022-12-24T03:40:56.985Z,9.75
2022-12-24T03:41:53.991Z,9.71
2022-12-24T03:42:36.963Z,9.71
2022-12-24T03:43:26.945Z,9.67
2022-12-24T03:44:16.954Z,9.65
2022-12-24T03:45:06.941Z,9.65
2022-12-24T03:45:56.937Z,9.65
2022-12-24T03:46:46.929Z,9.67
2022-12-24T03:47:36.923Z,9.67
2022-12-24T03:48:32.505Z,9.67
2022-12-24T03:49:17.885Z,9.68
2022-12-24T03:50:06.914Z,9.71
2022-12-24T03:50:56.863Z,9.75
2022-12-24T03:51:46.877Z,9.78
2022-12-24T03:52:36.864Z,9.80
2022-12-24T03:53:26.858Z,9.85
2022-12-24T03:54:16.875Z,9.88
2022-12-24T03:55:06.830Z,9.89
2022-12-24T03:55:56.829Z,9.95
2022-12-24T03:56:46.821Z,10.01
2022-12-24T03:57:36.804Z,10.04
2022-12-24T03:58:26.864Z,10.04
2022-12-24T03:59:16.793Z,10.04
2022-12-24T04:00:06.775Z,10.06
2022-12-24T04:00:56.818Z,10.06
2022-12-24T04:01:47.045Z,10.07
2022-12-24T04:02:36.865Z,10.07
2022-12-24T04:03:26.856Z,10.07
2022-12-24T04:04:16.722Z,10.04
2022-12-24T04:05:06.727Z,10.04
2022-12-24T04:05:56.705Z,10.02
2022-12-24T04:06:46.693Z,10.01
2022-12-24T04:07:36.703Z,10.02
2022-12-24T04:08:26.672Z,10.06
2022-12-24T04:09:16.662Z,10.11
2022-12-24T04:10:06.677Z,10.14
2022-12-24T04:10:56.651Z,10.18
2022-12-24T04:11:46.659Z,10.20
2022-12-24T04:12:36.643Z,10.22
2022-12-24T04:13:26.621Z,10.22
2022-12-24T04:14:16.613Z,10.20
2022-12-24T04:15:06.613Z,10.18
2022-12-24T04:15:56.580Z,10.17
2022-12-24T04:16:46.609Z,10.16
2022-12-24T04:17:36.624Z,10.14
2022-12-24T04:18:26.571Z,10.11
2022-12-24T04:19:16.553Z,10.10
2022-12-24T04:20:06.574Z,10.09
2022-12-24T04:20:56.536Z,10.06
2022-12-24T04:21:46.539Z,10.06
2022-12-24T04:22:36.527Z,10.04
2022-12-24T04:23:26.510Z,10.02
2022-12-24T04:24:16.507Z,10.02
2022-12-24T04:25:06.508Z,10.02
2022-12-24T04:25:56.484Z,10.02
2022-12-24T04:26:46.470Z,10.02
2022-12-24T04:27:36.473Z,10.01
2022-12-24T04:28:26.459Z,9.99
2022-12-24T04:29:16.447Z,9.99
2022-12-24T04:30:06.445Z,10.01
2022-12-24T04:30:56.436Z,9.99
2022-12-24T04:31:46.443Z,9.98
2022-12-24T04:32:36.420Z,9.99
2022-12-24T04:33:26.398Z,9.99
2022-12-24T04:34:16.390Z,9.99
2022-12-24T04:35:06.395Z,9.98
2022-12-24T04:35:56.367Z,9.98
2022-12-24T04:36:46.366Z,9.96
2022-12-24T04:37:36.356Z,9.95
2022-12-24T04:38:26.355Z,10.04
2022-12-24T04:39:16.338Z,10.07
2022-12-24T04:40:06.330Z,10.09
2022-12-24T04:40:56.307Z,10.11
2022-12-24T04:41:46.311Z,10.10
2022-12-24T04:42:36.310Z,10.07
2022-12-24T04:43:26.289Z,10.07
2022-12-24T04:44:16.278Z,10.09
2022-12-24T04:45:06.268Z,10.09
2022-12-24T04:45:56.326Z,10.09
2022-12-24T04:46:46.258Z,10.07
2022-12-24T04:47:36.247Z,10.07
2022-12-24T04:48:26.231Z,10.06
2022-12-24T04:49:16.227Z,10.02
2022-12-24T04:50:06.216Z,10.04
2022-12-24T04:50:56.198Z,10.02
2022-12-24T04:51:46.224Z,10.02
2022-12-24T04:52:36.199Z,10.04
2022-12-24T04:53:26.197Z,10.06
2022-12-24T04:54:16.176Z,10.07
2022-12-24T04:55:06.158Z,10.04
2022-12-24T04:55:56.145Z,10.07
2022-12-24T04:56:46.146Z,10.07
2022-12-24T04:57:36.144Z,10.10
2022-12-24T04:58:26.121Z,10.10
2022-12-24T04:59:16.107Z,10.10
2022-12-24T05:00:06.105Z,10.11
2022-12-24T05:00:56.170Z,10.13
2022-12-24T05:01:46.168Z,10.13
2022-12-24T05:02:36.312Z,10.11
2022-12-24T05:03:26.110Z,10.09
2022-12-24T05:04:16.061Z,10.07
2022-12-24T05:05:06.045Z,10.06
2022-12-24T05:06:01.271Z,10.02
2022-12-24T05:06:47.035Z,9.95
2022-12-24T05:07:36.034Z,9.92
2022-12-24T05:08:26.023Z,9.92
2022-12-24T05:09:16.017Z,9.93
2022-12-24T05:10:05.997Z,9.95
2022-12-24T05:10:55.983Z,9.93
2022-12-24T05:11:45.985Z,9.93
2022-12-24T05:12:35.993Z,9.92
2022-12-24T05:13:31.857Z,9.91
2022-12-24T05:14:16.944Z,9.85
2022-12-24T05:15:05.940Z,9.83
2022-12-24T05:15:55.925Z,9.83
2022-12-24T05:16:45.988Z,9.86
2022-12-24T05:17:35.926Z,9.86
2022-12-24T05:18:25.895Z,9.86
2022-12-24T05:19:16.149Z,9.86
2022-12-24T05:20:05.913Z,9.91
2022-12-24T05:20:55.864Z,9.89
2022-12-24T05:21:45.865Z,9.91
2022-12-24T05:22:35.863Z,9.92
2022-12-24T05:23:25.843Z,9.92
2022-12-24T05:24:15.849Z,9.92
2022-12-24T05:25:05.854Z,9.95
2022-12-24T05:25:55.815Z,9.95
2022-12-24T05:26:45.802Z,9.95
2022-12-24T05:27:35.809Z,9.95
2022-12-24T05:28:25.791Z,9.93
2022-12-24T05:29:15.772Z,9.95
2022-12-24T05:30:05.772Z,9.95
2022-12-24T05:30:55.839Z,9.95
2022-12-24T05:31:45.767Z,9.96
2022-12-24T05:32:35.753Z,9.95
2022-12-24T05:33:25.733Z,9.93
2022-12-24T05:34:15.740Z,9.93
2022-12-24T05:35:05.743Z,9.95
2022-12-24T05:35:55.703Z,9.95
2022-12-24T05:36:45.743Z,9.93
2022-12-24T05:37:35.697Z,9.92
2022-12-24T05:38:25.729Z,9.92
2022-12-24T05:39:16.325Z,9.91
2022-12-24T05:40:05.665Z,9.88
2022-12-24T05:40:55.655Z,9.88
2022-12-24T05:41:45.640Z,9.83
2022-12-24T05:42:35.659Z,9.83
2022-12-24T05:43:25.659Z,9.83
2022-12-24T05:44:15.611Z,9.80
2022-12-24T05:45:05.607Z,9.77
2022-12-24T05:45:55.636Z,9.78
2022-12-24T05:46:45.645Z,9.77
2022-12-24T05:47:41.281Z,9.77
2022-12-24T05:48:26.561Z,9.77
2022-12-24T05:49:15.563Z,9.75
2022-12-24T05:50:05.554Z,9.71
2022-12-24T05:50:55.543Z,9.62
2022-12-24T05:51:45.540Z,9.58
2022-12-24T05:52:35.576Z,9.55
2022-12-24T05:53:25.513Z,9.52
2022-12-24T05:54:15.498Z,9.49
2022-12-24T05:55:05.493Z,9.48
2022-12-24T05:55:55.488Z,9.42
2022-12-24T05:56:45.474Z,9.41
2022-12-24T05:57:35.483Z,9.37
2022-12-24T05:58:25.465Z,9.35
2022-12-24T05:59:15.441Z,9.32
2022-12-24T06:00:05.439Z,9.31
2022-12-24T06:00:55.431Z,9.37
2022-12-24T06:01:45.589Z,9.38
2022-12-24T06:02:35.467Z,9.40
2022-12-24T06:03:25.391Z,9.38
2022-12-24T06:04:15.407Z,9.38
2022-12-24T06:05:05.437Z,9.40
2022-12-24T06:05:55.368Z,9.40
2022-12-24T06:06:45.364Z,9.41
2022-12-24T06:07:35.375Z,9.45
2022-12-24T06:08:25.342Z,9.45
2022-12-24T06:09:15.347Z,9.48
2022-12-24T06:10:05.342Z,9.50
2022-12-24T06:10:55.341Z,9.52
2022-12-24T06:11:45.320Z,9.49
2022-12-24T06:12:35.308Z,9.49
2022-12-24T06:13:25.279Z,9.44
2022-12-24T06:14:15.287Z,9.41
2022-12-24T06:15:05.313Z,9.40
2022-12-24T06:15:55.322Z,9.41
2022-12-24T06:16:45.257Z,9.42
2022-12-24T06:17:35.263Z,9.45
2022-12-24T06:18:25.236Z,9.49
2022-12-24T06:19:15.243Z,9.55
2022-12-24T06:20:05.211Z,9.58
2022-12-24T06:20:55.206Z,9.60
2022-12-24T06:21:45.197Z,9.60
2022-12-24T06:22:35.297Z,9.62
2022-12-24T06:23:25.173Z,9.60
2022-12-24T06:24:15.170Z,9.58
2022-12-24T06:25:05.213Z,9.52
2022-12-24T06:25:55.152Z,9.37
2022-12-24T06:26:45.138Z,9.34
2022-12-24T06:27:35.152Z,9.31
2022-12-24T06:28:25.126Z,9.26
2022-12-24T06:29:15.114Z,9.26
2022-12-24T06:30:05.102Z,9.22
2022-12-24T06:31:02.146Z,9.19
2022-12-24T06:31:46.167Z,9.15
2022-12-24T06:32:35.086Z,9.08
2022-12-24T06:33:25.055Z,9.04
2022-12-24T06:34:15.056Z,9.01
2022-12-24T06:35:05.169Z,9.00
2022-12-24T06:35:55.037Z,9.00
2022-12-24T06:36:45.025Z,9.00
2022-12-24T06:37:35.161Z,9.03
2022-12-24T06:38:25.005Z,9.03
2022-12-24T06:39:14.996Z,9.03
2022-12-24T06:40:04.988Z,9.06
2022-12-24T06:40:54.992Z,9.01
2022-12-24T06:41:44.973Z,8.98
2022-12-24T06:42:34.975Z,8.98
2022-12-24T06:43:24.958Z,9.00
2022-12-24T06:44:14.950Z,9.00
2022-12-24T06:45:08.389Z,9.01
2022-12-24T06:45:54.932Z,9.01
2022-12-24T06:46:44.998Z,9.06
2022-12-24T06:47:34.927Z,9.12
2022-12-24T06:48:24.898Z,9.15
2022-12-24T06:49:14.893Z,9.17
2022-12-24T06:50:04.882Z,9.19
2022-12-24T06:50:54.873Z,9.20
2022-12-24T06:51:44.865Z,9.19
2022-12-24T06:52:34.862Z,9.22
2022-12-24T06:53:24.842Z,9.22
2022-12-24T06:54:14.834Z,9.23
2022-12-24T06:55:04.827Z,9.23
2022-12-24T06:55:54.812Z,9.23
2022-12-24T06:56:44.822Z,9.23
2022-12-24T06:57:34.820Z,9.23
2022-12-24T06:58:24.782Z,9.22
2022-12-24T06:59:14.776Z,9.23
2022-12-24T07:00:04.779Z,9.23
2022-12-24T07:00:54.762Z,9.23
2022-12-24T07:01:44.897Z,9.22
2022-12-24T07:02:34.842Z,9.19
2022-12-24T07:03:24.782Z,9.19
2022-12-24T07:04:20.097Z,9.19
2022-12-24T07:05:05.716Z,9.20
2022-12-24T07:05:54.708Z,9.19
2022-12-24T07:06:44.693Z,9.20
2022-12-24T07:07:34.709Z,9.20
2022-12-24T07:08:24.673Z,9.20
2022-12-24T07:09:14.667Z,9.20
2022-12-24T07:10:04.655Z,9.22
2022-12-24T07:10:54.902Z,9.20
2022-12-24T07:11:44.652Z,9.20
2022-12-24T07:12:34.646Z,9.15
2022-12-24T07:13:24.639Z,9.12
2022-12-24T07:14:14.622Z,9.15
2022-12-24T07:15:04.607Z,9.16
2022-12-24T07:15:54.667Z,9.19
2022-12-24T07:16:44.749Z,9.19
2022-12-24T07:17:34.696Z,9.20
2022-12-24T07:18:24.564Z,9.22
2022-12-24T07:19:14.558Z,9.22
2022-12-24T07:20:04.594Z,9.20
2022-12-24T07:20:54.546Z,9.20
2022-12-24T07:21:44.533Z,9.19
2022-12-24T07:22:34.531Z,9.17
2022-12-24T07:23:24.502Z,9.23
2022-12-24T07:24:14.499Z,9.24
2022-12-24T07:25:04.582Z,9.26
2022-12-24T07:25:54.511Z,9.27
2022-12-24T07:26:44.470Z,9.27
2022-12-24T07:27:34.501Z,9.27
2022-12-24T07:28:28.049Z,9.26
2022-12-24T07:29:14.449Z,9.27
2022-12-24T07:30:04.439Z,9.27
2022-12-24T07:30:54.504Z,9.27
2022-12-24T07:31:44.480Z,9.27
2022-12-24T07:32:34.419Z,9.27
2022-12-24T07:33:24.400Z,9.27
2022-12-24T07:34:14.391Z,9.26
2022-12-24T07:35:04.384Z,9.23
2022-12-24T07:35:56.044Z,9.17
2022-12-24T07:36:45.327Z,9.15
2022-12-24T07:37:34.366Z,9.15
2022-12-24T07:38:24.338Z,9.15
2022-12-24T07:39:14.342Z,9.17
2022-12-24T07:40:04.318Z,9.19
2022-12-24T07:40:54.317Z,9.23
2022-12-24T07:41:44.297Z,9.27
2022-12-24T07:42:34.318Z,9.31
2022-12-24T07:43:24.291Z,9.32
2022-12-24T07:44:14.283Z,9.37
2022-12-24T07:45:04.267Z,9.37
2022-12-24T07:45:54.263Z,9.32
2022-12-24T07:46:44.423Z,9.31
2022-12-24T07:47:34.256Z,9.30
2022-12-24T07:48:24.241Z,9.26
2022-12-24T07:49:14.227Z,9.20
2022-12-24T07:50:04.226Z,9.20
2022-12-24T07:50:54.216Z,9.15
2022-12-24T07:51:44.195Z,9.12
2022-12-24T07:52:34.211Z,9.04
2022-12-24T07:53:24.182Z,9.00
2022-12-24T07:54:14.182Z,8.97
2022-12-24T07:55:04.170Z,8.91
2022-12-24T07:55:54.153Z,8.85
2022-12-24T07:56:44.143Z,8.82
2022-12-24T07:57:34.161Z,8.78
2022-12-24T07:58:24.121Z,8.73
2022-12-24T07:59:14.126Z,8.71
2022-12-24T08:00:04.102Z,8.68
2022-12-24T08:00:54.097Z,8.67
2022-12-24T08:01:44.330Z,8.65
2022-12-24T08:02:34.231Z,8.61
2022-12-24T08:03:24.121Z,8.60
2022-12-24T08:04:14.071Z,8.58
2022-12-24T08:05:04.056Z,8.60
2022-12-24T08:05:54.073Z,8.57
2022-12-24T08:06:44.039Z,8.57
2022-12-24T08:07:34.046Z,8.57
2022-12-24T08:08:24.038Z,8.54
2022-12-24T08:09:14.003Z,8.55
2022-12-24T08:10:04.002Z,8.55
2022-12-24T08:10:54.010Z,8.55
2022-12-24T08:11:51.385Z,8.54
2022-12-24T08:12:34.982Z,8.54
2022-12-24T08:13:23.961Z,8.47
2022-12-24T08:14:13.945Z,8.47
2022-12-24T08:15:03.943Z,8.46
2022-12-24T08:15:53.950Z,8.46
2022-12-24T08:16:43.965Z,8.46
2022-12-24T08:17:33.934Z,8.46
2022-12-24T08:18:23.892Z,8.47
2022-12-24T08:19:13.893Z,8.49
2022-12-24T08:20:04.021Z,8.49
2022-12-24T08:20:53.869Z,8.50
2022-12-24T08:21:43.862Z,8.50
2022-12-24T08:22:33.877Z,8.52
2022-12-24T08:23:23.844Z,8.54
2022-12-24T08:24:20.828Z,8.52
2022-12-24T08:25:03.814Z,8.52
2022-12-24T08:25:53.797Z,8.52
2022-12-24T08:26:43.798Z,8.54
2022-12-24T08:27:33.818Z,8.52
2022-12-24T08:28:23.784Z,8.54
2022-12-24T08:29:13.784Z,8.54
2022-12-24T08:30:03.776Z,8.55
2022-12-24T08:30:53.760Z,8.57
2022-12-24T08:31:43.823Z,8.60
2022-12-24T08:32:33.767Z,8.61
2022-12-24T08:33:23.729Z,8.63
2022-12-24T08:34:13.725Z,8.64
2022-12-24T08:35:03.713Z,8.67
2022-12-24T08:35:53.711Z,8.67
2022-12-24T08:36:43.697Z,8.68
2022-12-24T08:37:33.702Z,8.70
2022-12-24T08:38:23.690Z,8.71
2022-12-24T08:39:13.671Z,8.71
2022-12-24T08:40:03.672Z,8.73
2022-12-24T08:40:53.664Z,8.76
2022-12-24T08:41:43.634Z,8.78
2022-12-24T08:42:33.676Z,8.78
2022-12-24T08:43:23.614Z,8.78
2022-12-24T08:44:13.639Z,8.78
2022-12-24T08:45:03.594Z,8.78
2022-12-24T08:45:53.625Z,8.73
2022-12-24T08:46:43.639Z,8.68
2022-12-24T08:47:33.593Z,8.67
2022-12-24T08:48:23.565Z,8.65
2022-12-24T08:49:13.565Z,8.67
2022-12-24T08:50:03.544Z,8.70
2022-12-24T08:50:53.545Z,8.68
2022-12-24T08:51:43.533Z,8.68
2022-12-24T08:52:33.534Z,8.68
2022-12-24T08:53:23.505Z,8.68
2022-12-24T08:54:13.501Z,8.67
2022-12-24T08:55:03.483Z,8.68
2022-12-24T08:55:56.251Z,8.67
2022-12-24T08:56:43.483Z,8.65
2022-12-24T08:57:33.483Z,8.67
2022-12-24T08:58:23.456Z,8.67
2022-12-24T08:59:13.442Z,8.68
2022-12-24T09:00:03.434Z,8.70
2022-12-24T09:00:53.468Z,8.68
2022-12-24T09:01:43.626Z,8.70
2022-12-24T09:02:33.566Z,8.71
2022-12-24T09:03:27.294Z,8.70
2022-12-24T09:04:13.392Z,8.73
2022-12-24T09:05:03.381Z,8.70
2022-12-24T09:05:53.377Z,8.70
2022-12-24T09:06:43.361Z,8.75
2022-12-24T09:07:33.370Z,8.71
2022-12-24T09:08:23.341Z,8.75
2022-12-24T09:09:13.340Z,8.75
2022-12-24T09:10:03.326Z,8.76
2022-12-24T09:10:53.315Z,8.78
2022-12-24T09:11:43.301Z,8.78
2022-12-24T09:12:33.319Z,8.79
2022-12-24T09:13:23.288Z,8.79
2022-12-24T09:14:13.284Z,8.79
2022-12-24T09:15:04.341Z,8.80
2022-12-24T09:15:53.260Z,8.80
2022-12-24T09:16:43.353Z,8.83
2022-12-24T09:17:33.264Z,8.85
2022-12-24T09:18:23.240Z,8.83
2022-12-24T09:19:13.219Z,8.83
2022-12-24T09:20:03.233Z,8.85
2022-12-24T09:20:57.281Z,8.86
2022-12-24T09:21:43.200Z,8.86
2022-12-24T09:22:33.198Z,8.88
2022-12-24T09:23:23.186Z,8.91
2022-12-24T09:24:13.159Z,8.94
2022-12-24T09:25:03.172Z,8.96
2022-12-24T09:25:53.149Z,8.97
2022-12-24T09:26:43.138Z,8.98
2022-12-24T09:27:33.146Z,9.00
2022-12-24T09:28:23.119Z,9.01
2022-12-24T09:29:13.112Z,9.03
2022-12-24T09:30:03.108Z,9.10
2022-12-24T09:30:53.087Z,9.12
2022-12-24T09:31:43.150Z,9.15
2022-12-24T09:32:33.104Z,9.17
2022-12-24T09:33:23.067Z,9.20
2022-12-24T09:34:13.052Z,9.23
2022-12-24T09:35:03.055Z,9.24
2022-12-24T09:35:53.036Z,9.26
2022-12-24T09:36:43.038Z,9.26
2022-12-24T09:37:33.055Z,9.30
2022-12-24T09:38:23.035Z,9.27
2022-12-24T09:39:13.013Z,9.30
2022-12-24T09:40:02.988Z,9.32
2022-12-24T09:40:52.978Z,9.35
2022-12-24T09:41:42.967Z,9.35
2022-12-24T09:42:32.976Z,9.35
2022-12-24T09:43:22.962Z,9.32
2022-12-24T09:44:12.948Z,9.31
2022-12-24T09:45:02.935Z,9.32
2022-12-24T09:45:52.970Z,9.35
2022-12-24T09:46:42.917Z,9.37
2022-12-24T09:47:32.918Z,9.38
2022-12-24T09:48:22.896Z,9.41
2022-12-24T09:49:12.896Z,9.45
2022-12-24T09:50:02.906Z,9.49
2022-12-24T09:50:52.869Z,9.52
2022-12-24T09:51:42.867Z,9.50
2022-12-24T09:52:32.865Z,9.52
2022-12-24T09:53:22.846Z,9.55
2022-12-24T09:54:12.834Z,9.58
2022-12-24T09:55:02.826Z,9.59
2022-12-24T09:55:52.816Z,9.60
2022-12-24T09:56:42.806Z,9.65
2022-12-24T09:57:32.819Z,9.70
2022-12-24T09:58:22.784Z,9.70
2022-12-24T09:59:12.777Z,9.74
2022-12-24T10:00:02.773Z,9.83
2022-12-24T10:00:52.754Z,9.88
2022-12-24T10:01:42.978Z,9.92
2022-12-24T10:02:32.916Z,9.98
2022-12-24T10:03:22.774Z,10.06
2022-12-24T10:04:12.729Z,10.09
2022-12-24T10:05:02.732Z,10.13
2022-12-24T10:05:52.736Z,10.18
2022-12-24T10:06:42.706Z,10.24
2022-12-24T10:07:32.702Z,10.29
2022-12-24T10:08:22.677Z,10.34
2022-12-24T10:09:12.663Z,10.36
2022-12-24T10:10:02.658Z,10.38
2022-12-24T10:10:52.652Z,10.38
2022-12-24T10:11:44.356Z,10.42
2022-12-24T10:12:32.645Z,10.46
2022-12-24T10:13:22.624Z,10.47
2022-12-24T10:14:12.616Z,10.49
2022-12-24T10:15:02.604Z,10.54
2022-12-24T10:15:52.598Z,10.55
2022-12-24T10:16:42.687Z,10.58
2022-12-24T10:17:32.582Z,10.62
2022-12-24T10:18:22.568Z,10.65
2022-12-24T10:19:12.558Z,10.66
2022-12-24T10:20:02.549Z,10.68
2022-12-24T10:20:52.541Z,10.68
2022-12-24T10:21:42.539Z,10.68
2022-12-24T10:22:32.539Z,10.69
2022-12-24T10:23:22.511Z,10.70
2022-12-24T10:24:12.500Z,10.75
2022-12-24T10:25:02.491Z,10.73
2022-12-24T10:25:52.490Z,10.76
2022-12-24T10:26:42.477Z,10.78
2022-12-24T10:27:32.472Z,10.76
2022-12-24T10:28:22.470Z,10.80
2022-12-24T10:29:12.452Z,10.80
2022-12-24T10:30:02.444Z,10.78
2022-12-24T10:30:52.463Z,10.78
2022-12-24T10:31:42.419Z,10.80
2022-12-24T10:32:32.420Z,10.80
2022-12-24T10:33:22.401Z,10.83
2022-12-24T10:34:12.382Z,10.83
2022-12-24T10:35:02.407Z,10.83
2022-12-24T10:35:52.370Z,10.83
2022-12-24T10:36:42.369Z,10.86
2022-12-24T10:37:32.370Z,10.88
2022-12-24T10:38:22.339Z,10.90
2022-12-24T10:39:12.329Z,10.86
2022-12-24T10:40:02.320Z,10.86
2022-12-24T10:40:52.310Z,10.86
2022-12-24T10:41:42.341Z,10.88
2022-12-24T10:42:32.309Z,10.88
2022-12-24T10:43:22.291Z,10.91
2022-12-24T10:44:12.276Z,10.93
2022-12-24T10:45:02.282Z,10.94
2022-12-24T10:45:52.269Z,10.95
2022-12-24T10:46:42.313Z,10.95
2022-12-24T10:47:32.240Z,10.95
2022-12-24T10:48:22.220Z,10.99
2022-12-24T10:49:12.231Z,10.98
2022-12-24T10:50:02.220Z,10.98
2022-12-24T10:50:52.207Z,10.94
2022-12-24T10:51:42.205Z,10.94
2022-12-24T10:52:32.224Z,10.95
2022-12-24T10:53:22.189Z,10.95
2022-12-24T10:54:12.160Z,10.99